Time;durP1;ratioP1;P1;durP2;ratioP2;P2;SDS_P1;SDS_P2;PMS_P1;PMS_P2;Temp;Humidity;BMP_temperature;BMP_pressure;BME280_temperature;BME280_humidity;BME280_pressure;Samples;Min_cycle;Max_cycle;Signal;HPM_P1;HPM_P2
2024/01/17 00:00:56;;;;;;;15.63;7.20;;;;;;;;;;5090983;28;20466;-51
2024/01/17 00:03:22;;;;;;;13.73;7.10;;;;;;;;;;5090862;28;20385;-50
2024/01/17 00:05:48;;;;;;;17.23;7.23;;;;;;;;;;5091018;28;20418;-51
2024/01/17 00:08:14;;;;;;;12.30;6.97;;;;;;;;;;5088473;28;20430;-51
2024/01/17 00:10:40;;;;;;;12.40;6.45;;;;;;;;;;5090320;28;20408;-50
2024/01/17 00:13:06;;;;;;;11.90;6.47;;;;;;;;;;5090810;28;20937;-51
2024/01/17 00:15:32;;;;;;;16.63;7.60;;;;;;;;;;5090531;28;20927;-54
2024/01/17 00:17:58;;;;;;;12.75;6.68;;;;;;;;;;5081912;28;20384;-55
2024/01/17 00:20:24;;;;;;;14.15;7.40;;;;;;;;;;5070909;28;20380;-54
2024/01/17 00:22:50;;;;;;;11.80;6.70;;;;;;;;;;5077929;28;20493;-53
2024/01/17 00:25:16;;;;;;;12.67;7.53;;;;;;;;;;5090320;28;20436;-54
2024/01/17 00:27:42;;;;;;;12.73;7.15;;;;;;;;;;5090570;28;20370;-53
2024/01/17 00:30:08;;;;;;;16.58;7.50;;;;;;;;;;5090392;28;20374;-52
2024/01/17 00:32:34;;;;;;;14.82;7.45;;;;;;;;;;5090834;28;20385;-53
2024/01/17 00:35:00;;;;;;;12.15;6.55;;;;;;;;;;5090441;28;20366;-51
2024/01/17 00:37:26;;;;;;;9.90;6.25;;;;;;;;;;5089917;28;20426;-50
2024/01/17 00:39:53;;;;;;;12.65;6.75;;;;;;;;;;5089382;28;20402;-52
2024/01/17 00:42:19;;;;;;;14.02;6.45;;;;;;;;;;5072034;28;20458;-53
2024/01/17 00:44:45;;;;;;;16.00;7.18;;;;;;;;;;5090416;28;20390;-52
2024/01/17 00:47:11;;;;;;;13.27;6.78;;;;;;;;;;5090495;28;20416;-53
2024/01/17 00:49:40;;;;;;;12.90;7.15;;;;;;;;;;5081409;28;20872;-54
2024/01/17 00:52:06;;;;;;;14.05;6.68;;;;;;;;;;5090723;28;20389;-54
2024/01/17 00:54:32;;;;;;;14.05;6.90;;;;;;;;;;5080750;28;20830;-54
2024/01/17 00:56:59;;;;;;;14.15;6.88;;;;;;;;;;5090676;28;20385;-54
2024/01/17 00:59:25;;;;;;;12.85;6.55;;;;;;;;;;5090429;28;20410;-52
2024/01/17 01:01:51;;;;;;;14.90;6.28;;;;;;;;;;5090670;28;20386;-54
2024/01/17 01:04:17;;;;;;;13.00;6.63;;;;;;;;;;5090280;28;20378;-54
2024/01/17 01:06:42;;;;;;;16.85;6.68;;;;;;;;;;5078607;28;20771;-52
2024/01/17 01:09:09;;;;;;;13.80;6.55;;;;;;;;;;5090292;28;20942;-50
2024/01/17 01:11:36;;;;;;;13.82;6.70;;;;;;;;;;5089388;28;20394;-50
2024/01/17 01:14:02;;;;;;;14.23;6.30;;;;;;;;;;5078667;28;20765;-52
2024/01/17 01:16:29;;;;;;;13.13;6.50;;;;;;;;;;5076594;28;20384;-54
2024/01/17 01:18:55;;;;;;;15.02;6.65;;;;;;;;;;5071384;28;20437;-54
2024/01/17 01:21:21;;;;;;;11.68;6.22;;;;;;;;;;5073562;28;20393;-52
2024/01/17 01:23:47;;;;;;;13.52;6.00;;;;;;;;;;5073568;28;20474;-52
2024/01/17 01:26:14;;;;;;;12.90;6.80;;;;;;;;;;5073841;28;20408;-57
2024/01/17 01:28:40;;;;;;;13.23;6.75;;;;;;;;;;5077619;28;20430;-60
2024/01/17 01:31:06;;;;;;;12.57;6.65;;;;;;;;;;5079288;28;20380;-56
2024/01/17 01:33:32;;;;;;;13.85;6.65;;;;;;;;;;5073315;28;20416;-56
2024/01/17 01:35:58;;;;;;;17.50;7.72;;;;;;;;;;5074908;28;20413;-57
2024/01/17 01:38:24;;;;;;;13.23;7.50;;;;;;;;;;5093838;28;20391;-56
2024/01/17 01:40:50;;;;;;;15.30;7.50;;;;;;;;;;5089253;28;20389;-56
2024/01/17 01:43:25;;;;;;;14.50;7.73;;;;;;;;;;5093439;28;20794;-52
2024/01/17 01:46:09;;;;;;;15.47;8.20;;;;;;;;;;5091774;28;20402;-56
2024/01/17 01:48:36;;;;;;;17.23;7.97;;;;;;;;;;5079433;28;20517;-55
2024/01/17 01:51:02;;;;;;;18.20;8.80;;;;;;;;;;5091547;28;20461;-56
2024/01/17 01:53:29;;;;;;;20.58;9.05;;;;;;;;;;5093169;28;20453;-56
2024/01/17 01:55:56;;;;;;;15.17;8.77;;;;;;;;;;5093082;28;20469;-54
2024/01/17 01:58:23;;;;;;;15.87;8.60;;;;;;;;;;5093462;28;20382;-57
2024/01/17 02:00:50;;;;;;;16.38;8.38;;;;;;;;;;5092108;28;20766;-57
2024/01/17 02:03:15;;;;;;;14.68;8.40;;;;;;;;;;5083274;28;20478;-57
2024/01/17 02:05:42;;;;;;;17.10;8.85;;;;;;;;;;5073071;28;20461;-57
2024/01/17 02:08:08;;;;;;;15.35;8.65;;;;;;;;;;5082452;28;20382;-56
2024/01/17 02:10:35;;;;;;;18.67;9.13;;;;;;;;;;5088961;28;20879;-57
2024/01/17 02:13:01;;;;;;;16.65;9.07;;;;;;;;;;5092620;28;20389;-57
2024/01/17 02:15:27;;;;;;;17.45;8.85;;;;;;;;;;5092752;28;20904;-55
2024/01/17 02:17:53;;;;;;;15.95;8.98;;;;;;;;;;5092542;28;20441;-57
2024/01/17 02:20:19;;;;;;;16.85;8.75;;;;;;;;;;5092844;28;20393;-55
2024/01/17 02:22:45;;;;;;;17.63;9.05;;;;;;;;;;5093005;28;20386;-56
2024/01/17 02:25:11;;;;;;;20.48;9.55;;;;;;;;;;5092695;28;20428;-55
2024/01/17 02:27:38;;;;;;;18.05;9.23;;;;;;;;;;5091445;28;20436;-55
2024/01/17 02:30:04;;;;;;;18.15;10.15;;;;;;;;;;5091059;28;20367;-56
2024/01/17 02:32:30;;;;;;;21.35;9.85;;;;;;;;;;5091734;28;20398;-56
2024/01/17 02:34:56;;;;;;;20.80;10.67;;;;;;;;;;5092765;28;20748;-52
2024/01/17 02:37:22;;;;;;;21.02;9.93;;;;;;;;;;5090707;28;20484;-53
2024/01/17 02:39:48;;;;;;;22.33;10.23;;;;;;;;;;5080149;28;20473;-54
2024/01/17 02:42:14;;;;;;;19.38;10.48;;;;;;;;;;5092425;28;20405;-53
2024/01/17 02:44:40;;;;;;;16.95;8.85;;;;;;;;;;5090850;28;20418;-53
2024/01/17 02:47:06;;;;;;;18.30;9.43;;;;;;;;;;5092226;28;20413;-53
2024/01/17 02:49:32;;;;;;;15.57;9.20;;;;;;;;;;5092791;28;20743;-54
2024/01/17 02:51:58;;;;;;;17.33;9.50;;;;;;;;;;5092982;28;20505;-53
2024/01/17 02:54:24;;;;;;;15.57;8.93;;;;;;;;;;5091942;28;20802;-54
2024/01/17 02:56:50;;;;;;;22.90;9.70;;;;;;;;;;5092172;28;20408;-51
2024/01/17 02:59:16;;;;;;;19.13;9.90;;;;;;;;;;5090791;28;20403;-53
2024/01/17 03:01:43;;;;;;;20.50;10.18;;;;;;;;;;5092376;28;20805;-55
2024/01/17 03:04:08;;;;;;;19.33;10.40;;;;;;;;;;5091695;28;20409;-55
2024/01/17 03:06:34;;;;;;;18.35;9.95;;;;;;;;;;5091656;28;20445;-53
2024/01/17 03:09:00;;;;;;;18.00;9.65;;;;;;;;;;5092082;28;20373;-53
2024/01/17 03:11:26;;;;;;;20.13;9.98;;;;;;;;;;5092021;28;20369;-52
2024/01/17 03:13:52;;;;;;;18.33;9.35;;;;;;;;;;5090272;28;20462;-52
2024/01/17 03:16:19;;;;;;;17.30;9.05;;;;;;;;;;5091609;28;20416;-52
2024/01/17 03:18:46;;;;;;;19.38;9.70;;;;;;;;;;5092108;28;20797;-53
2024/01/17 03:21:12;;;;;;;19.83;9.30;;;;;;;;;;5091962;28;20393;-53
2024/01/17 03:23:38;;;;;;;16.38;9.00;;;;;;;;;;5073335;28;20385;-54
2024/01/17 03:26:04;;;;;;;15.70;9.73;;;;;;;;;;5089357;28;20906;-53
2024/01/17 03:28:30;;;;;;;20.10;9.10;;;;;;;;;;5071360;28;20945;-52
2024/01/17 03:30:56;;;;;;;18.93;9.50;;;;;;;;;;5072047;28;20462;-52
2024/01/17 03:33:22;;;;;;;16.90;8.98;;;;;;;;;;5089915;28;20389;-51
2024/01/17 03:35:49;;;;;;;19.02;9.20;;;;;;;;;;5091776;28;20386;-51
2024/01/17 03:38:18;;;;;;;19.38;9.45;;;;;;;;;;5086325;28;20376;-53
2024/01/17 03:40:44;;;;;;;17.33;9.02;;;;;;;;;;5071330;28;20746;-54
2024/01/17 03:43:10;;;;;;;18.67;9.38;;;;;;;;;;5081705;28;20374;-54
2024/01/17 03:45:36;;;;;;;17.00;9.25;;;;;;;;;;5091336;28;20479;-56
2024/01/17 03:48:02;;;;;;;18.77;9.65;;;;;;;;;;5090210;28;20382;-56
2024/01/17 03:50:28;;;;;;;17.52;9.00;;;;;;;;;;5091073;28;20733;-56
2024/01/17 03:52:54;;;;;;;19.73;9.52;;;;;;;;;;5091343;28;20430;-56
2024/01/17 03:55:20;;;;;;;16.42;9.50;;;;;;;;;;5090645;28;20377;-55
2024/01/17 03:57:47;;;;;;;15.40;8.30;;;;;;;;;;5090980;28;20382;-57
2024/01/17 04:00:13;;;;;;;20.90;9.67;;;;;;;;;;5091281;28;20391;-55
2024/01/17 04:02:39;;;;;;;21.90;9.55;;;;;;;;;;5089812;28;20878;-55
2024/01/17 04:05:05;;;;;;;19.38;10.05;;;;;;;;;;5084781;28;20386;-56
2024/01/17 04:07:31;;;;;;;16.33;9.43;;;;;;;;;;5077906;28;20850;-57
2024/01/17 04:09:57;;;;;;;18.13;9.25;;;;;;;;;;5070900;28;20383;-56
2024/01/17 04:12:22;;;;;;;17.77;9.50;;;;;;;;;;5078029;28;20390;-58
2024/01/17 04:14:48;;;;;;;19.58;9.73;;;;;;;;;;5090122;28;20404;-57
2024/01/17 04:17:14;;;;;;;17.05;9.73;;;;;;;;;;5090996;28;20905;-56
2024/01/17 04:19:41;;;;;;;16.20;9.25;;;;;;;;;;5090695;28;20744;-54
2024/01/17 04:22:07;;;;;;;17.77;9.65;;;;;;;;;;5090931;28;20787;-56
2024/01/17 04:24:33;;;;;;;15.55;8.75;;;;;;;;;;5090437;28;20956;-56
2024/01/17 04:26:59;;;;;;;21.27;9.73;;;;;;;;;;5081553;28;20404;-57
2024/01/17 04:29:25;;;;;;;19.30;10.10;;;;;;;;;;5089483;28;20398;-57
2024/01/17 04:31:52;;;;;;;13.32;8.68;;;;;;;;;;5090980;28;20374;-57
2024/01/17 04:34:18;;;;;;;18.23;9.73;;;;;;;;;;5090297;28;20375;-56
2024/01/17 04:36:44;;;;;;;18.23;9.77;;;;;;;;;;5090055;28;20439;-56
2024/01/17 04:39:10;;;;;;;19.00;9.27;;;;;;;;;;5088065;28;20416;-56
2024/01/17 04:41:37;;;;;;;16.53;9.07;;;;;;;;;;5070560;28;20437;-56
2024/01/17 04:44:03;;;;;;;16.35;8.30;;;;;;;;;;5089252;28;20426;-57
2024/01/17 04:46:29;;;;;;;17.17;9.50;;;;;;;;;;5085152;28;20411;-56
2024/01/17 04:48:55;;;;;;;18.73;9.23;;;;;;;;;;5087844;28;20439;-54
2024/01/17 04:51:25;;;;;;;17.33;9.25;;;;;;;;;;5090850;28;20370;-56
2024/01/17 04:53:51;;;;;;;17.33;9.10;;;;;;;;;;5091716;28;20920;-52
2024/01/17 04:56:17;;;;;;;17.15;9.35;;;;;;;;;;5094264;28;20382;-54
2024/01/17 04:58:44;;;;;;;20.30;9.73;;;;;;;;;;5094634;28;20469;-52
2024/01/17 05:01:09;;;;;;;18.35;9.45;;;;;;;;;;5094533;28;20388;-53
2024/01/17 05:03:35;;;;;;;17.98;9.27;;;;;;;;;;5086007;28;20871;-52
2024/01/17 05:06:02;;;;;;;15.73;9.00;;;;;;;;;;5081482;28;20408;-53
2024/01/17 05:08:28;;;;;;;20.33;10.15;;;;;;;;;;5093246;28;20801;-55
2024/01/17 05:10:54;;;;;;;17.23;9.52;;;;;;;;;;5094359;28;20385;-54
2024/01/17 05:13:20;;;;;;;13.40;8.82;;;;;;;;;;5093287;28;20879;-53
2024/01/17 05:15:47;;;;;;;18.85;9.25;;;;;;;;;;5093831;28;20871;-53
2024/01/17 05:18:13;;;;;;;17.40;9.70;;;;;;;;;;5086826;28;20423;-53
2024/01/17 05:20:39;;;;;;;21.08;10.95;;;;;;;;;;5091723;28;20474;-51
2024/01/17 05:23:05;;;;;;;18.83;10.35;;;;;;;;;;5093931;28;20896;-51
2024/01/17 05:25:31;;;;;;;35.65;20.98;;;;;;;;;;5086976;28;20907;-53
2024/01/17 05:27:57;;;;;;;20.05;12.32;;;;;;;;;;5088580;28;20397;-54
2024/01/17 05:30:23;;;;;;;18.55;9.60;;;;;;;;;;5092822;28;20393;-53
2024/01/17 05:32:49;;;;;;;19.38;10.00;;;;;;;;;;5090267;28;20856;-54
2024/01/17 05:35:16;;;;;;;21.27;10.50;;;;;;;;;;5089547;28;20877;-54
2024/01/17 05:37:42;;;;;;;20.23;10.55;;;;;;;;;;5087425;28;20998;-54
2024/01/17 05:40:09;;;;;;;21.58;11.07;;;;;;;;;;5089684;28;20370;-54
2024/01/17 05:42:36;;;;;;;19.85;10.60;;;;;;;;;;5089829;28;20459;-53
2024/01/17 05:45:02;;;;;;;20.20;10.10;;;;;;;;;;5093276;28;20874;-54
2024/01/17 05:47:28;;;;;;;20.85;10.40;;;;;;;;;;5092454;28;20448;-56
2024/01/17 05:49:54;;;;;;;30.42;18.70;;;;;;;;;;5093277;28;21082;-54
2024/01/17 05:52:20;;;;;;;22.17;10.48;;;;;;;;;;5087444;28;20794;-52
2024/01/17 05:54:46;;;;;;;26.45;12.45;;;;;;;;;;5088533;28;20777;-55
2024/01/17 05:57:12;;;;;;;18.92;10.55;;;;;;;;;;5090518;28;20611;-54
2024/01/17 05:59:38;;;;;;;20.50;11.30;;;;;;;;;;5083293;28;20494;-53
2024/01/17 06:02:04;;;;;;;40.78;20.52;;;;;;;;;;5086320;28;20400;-52
2024/01/17 06:04:30;;;;;;;20.77;10.25;;;;;;;;;;5086534;28;20428;-53
2024/01/17 06:06:56;;;;;;;21.52;10.55;;;;;;;;;;5090127;28;20424;-51
2024/01/17 06:09:22;;;;;;;22.50;12.57;;;;;;;;;;5084397;28;20372;-51
2024/01/17 06:11:48;;;;;;;30.60;16.00;;;;;;;;;;5083124;28;20402;-49
2024/01/17 06:14:14;;;;;;;22.40;11.45;;;;;;;;;;5091368;28;20409;-52
2024/01/17 06:16:40;;;;;;;40.00;25.38;;;;;;;;;;5092254;28;20871;-52
2024/01/17 06:19:06;;;;;;;23.65;12.23;;;;;;;;;;5087787;28;20855;-52
2024/01/17 06:21:32;;;;;;;41.03;23.17;;;;;;;;;;5090662;28;20428;-53
2024/01/17 06:23:58;;;;;;;31.83;16.95;;;;;;;;;;5091654;28;20394;-52
2024/01/17 06:26:24;;;;;;;20.98;10.95;;;;;;;;;;5092502;28;20417;-50
2024/01/17 06:28:50;;;;;;;20.65;10.88;;;;;;;;;;5086823;28;20439;-50
2024/01/17 06:31:24;;;;;;;43.47;25.83;;;;;;;;;;5089797;28;20402;-49
2024/01/17 06:33:50;;;;;;;42.95;28.15;;;;;;;;;;5083515;28;20473;-52
2024/01/17 06:36:16;;;;;;;49.17;30.25;;;;;;;;;;5091553;28;20386;-50
2024/01/17 06:38:42;;;;;;;21.20;11.68;;;;;;;;;;5088155;28;20406;-50
2024/01/17 06:41:08;;;;;;;22.60;10.23;;;;;;;;;;5091867;28;20378;-53
2024/01/17 06:43:34;;;;;;;19.25;10.77;;;;;;;;;;5091741;28;20385;-54
2024/01/17 06:46:00;;;;;;;19.65;11.15;;;;;;;;;;5088186;28;20426;-51
2024/01/17 06:48:26;;;;;;;21.25;10.18;;;;;;;;;;5092138;28;20382;-52
2024/01/17 06:50:52;;;;;;;19.20;10.63;;;;;;;;;;5090517;28;20394;-52
2024/01/17 06:53:21;;;;;;;22.42;11.23;;;;;;;;;;5091201;28;20377;-49
2024/01/17 06:55:47;;;;;;;20.10;10.82;;;;;;;;;;5091360;28;20874;-49
2024/01/17 06:58:13;;;;;;;20.95;10.55;;;;;;;;;;5089838;28;20467;-53
2024/01/17 07:00:39;;;;;;;15.82;9.43;;;;;;;;;;5092146;28;20382;-53
2024/01/17 07:03:05;;;;;;;18.25;9.50;;;;;;;;;;5089880;28;20466;-49
2024/01/17 07:05:31;;;;;;;20.03;9.37;;;;;;;;;;5091698;28;20386;-53
2024/01/17 07:07:57;;;;;;;18.83;10.20;;;;;;;;;;5089052;28;20405;-52
2024/01/17 07:10:23;;;;;;;19.60;9.97;;;;;;;;;;5091716;28;20382;-52
2024/01/17 07:12:50;;;;;;;21.77;10.48;;;;;;;;;;5091147;28;20380;-54
2024/01/17 07:15:16;;;;;;;21.38;10.63;;;;;;;;;;5091325;28;20436;-54
2024/01/17 07:17:42;;;;;;;20.90;11.00;;;;;;;;;;5091257;28;20400;-54
2024/01/17 07:20:10;;;;;;;19.73;10.00;;;;;;;;;;5091335;28;20372;-54
2024/01/17 07:22:41;;;;;;;20.35;10.05;;;;;;;;;;5091211;28;20881;-55
2024/01/17 07:25:08;;;;;;;18.90;9.55;;;;;;;;;;5088606;28;20419;-53
2024/01/17 07:27:34;;;;;;;20.30;10.40;;;;;;;;;;5090331;28;20413;-52
2024/01/17 07:29:59;;;;;;;19.00;9.63;;;;;;;;;;5090979;28;20370;-52
2024/01/17 07:32:25;;;;;;;16.58;9.20;;;;;;;;;;5090601;28;20423;-52
2024/01/17 07:34:52;;;;;;;20.17;9.88;;;;;;;;;;5090437;28;20370;-54
2024/01/17 07:37:18;;;;;;;17.90;8.68;;;;;;;;;;5090664;28;20398;-51
2024/01/17 07:39:44;;;;;;;17.77;9.40;;;;;;;;;;5090530;28;20378;-51
2024/01/17 07:42:10;;;;;;;16.23;8.43;;;;;;;;;;5088806;28;20459;-55
2024/01/17 07:44:36;;;;;;;19.77;10.15;;;;;;;;;;5090185;28;20462;-51
2024/01/17 07:47:02;;;;;;;18.38;9.35;;;;;;;;;;5090579;28;20398;-53
2024/01/17 07:49:29;;;;;;;16.17;8.60;;;;;;;;;;5090676;28;20440;-54
2024/01/17 07:51:55;;;;;;;21.20;10.07;;;;;;;;;;5090361;28;20877;-54
2024/01/17 07:54:23;;;;;;;19.63;9.13;;;;;;;;;;5089983;28;20369;-55
2024/01/17 07:56:49;;;;;;;16.58;9.57;;;;;;;;;;5089200;28;20827;-55
2024/01/17 07:59:15;;;;;;;19.33;10.63;;;;;;;;;;5089943;28;20397;-51
2024/01/17 08:01:41;;;;;;;21.08;10.63;;;;;;;;;;5090263;28;20440;-55
2024/01/17 08:04:08;;;;;;;20.13;9.57;;;;;;;;;;5086882;28;20958;-52
2024/01/17 08:06:34;;;;;;;18.55;9.65;;;;;;;;;;5088166;28;20501;-55
2024/01/17 08:09:00;;;;;;;17.80;8.75;;;;;;;;;;5089744;28;20386;-51
2024/01/17 08:11:26;;;;;;;15.82;9.05;;;;;;;;;;5090071;28;20417;-54
2024/01/17 08:13:52;;;;;;;20.23;10.73;;;;;;;;;;5089301;28;20414;-51
2024/01/17 08:16:18;;;;;;;15.07;8.70;;;;;;;;;;5090152;28;20463;-51
2024/01/17 08:18:44;;;;;;;16.92;8.75;;;;;;;;;;5090112;28;20389;-52
2024/01/17 08:21:10;;;;;;;19.02;9.45;;;;;;;;;;5090010;28;20398;-51
2024/01/17 08:23:36;;;;;;;14.52;8.20;;;;;;;;;;5089501;28;20382;-52
2024/01/17 08:26:02;;;;;;;15.05;7.75;;;;;;;;;;5088737;28;20455;-54
2024/01/17 08:28:28;;;;;;;18.73;8.80;;;;;;;;;;5089329;28;20382;-53
2024/01/17 08:30:54;;;;;;;15.32;7.88;;;;;;;;;;5088004;28;20382;-53
2024/01/17 08:33:20;;;;;;;13.88;7.60;;;;;;;;;;5089662;28;20843;-51
2024/01/17 08:35:47;;;;;;;15.77;8.07;;;;;;;;;;5090002;28;20494;-49
2024/01/17 08:38:13;;;;;;;15.23;7.60;;;;;;;;;;5089098;28;20497;-50
2024/01/17 08:40:39;;;;;;;14.52;7.55;;;;;;;;;;5090034;28;20374;-54
2024/01/17 08:43:05;;;;;;;10.77;6.70;;;;;;;;;;5087783;28;20410;-49
2024/01/17 08:45:31;;;;;;;13.98;7.60;;;;;;;;;;5089512;28;20386;-49
2024/01/17 08:47:57;;;;;;;16.23;8.05;;;;;;;;;;5089501;28;20389;-49
2024/01/17 08:50:23;;;;;;;13.68;7.70;;;;;;;;;;5089973;28;20386;-49
2024/01/17 08:52:49;;;;;;;11.05;7.22;;;;;;;;;;5089341;28;20374;-49
2024/01/17 08:55:15;;;;;;;15.57;8.20;;;;;;;;;;5089708;28;20378;-51
2024/01/17 08:57:41;;;;;;;14.32;6.90;;;;;;;;;;5089561;28;20461;-50
2024/01/17 09:00:08;;;;;;;15.35;7.22;;;;;;;;;;5088041;28;20406;-49
2024/01/17 09:02:34;;;;;;;13.55;6.75;;;;;;;;;;5089554;28;20735;-49
2024/01/17 09:05:00;;;;;;;11.77;6.50;;;;;;;;;;5089358;28;20374;-50
2024/01/17 09:07:26;;;;;;;12.18;7.25;;;;;;;;;;5080778;28;20410;-52
2024/01/17 09:09:52;;;;;;;12.63;7.00;;;;;;;;;;5089717;28;20397;-52
2024/01/17 09:12:19;;;;;;;16.48;7.15;;;;;;;;;;5089368;28;20374;-52
2024/01/17 09:14:45;;;;;;;12.50;7.33;;;;;;;;;;5089187;28;20398;-52
2024/01/17 09:17:11;;;;;;;15.47;6.90;;;;;;;;;;5087724;28;20882;-53
2024/01/17 09:19:37;;;;;;;14.60;6.87;;;;;;;;;;5089498;28;20382;-54
2024/01/17 09:22:03;;;;;;;12.07;6.57;;;;;;;;;;5089347;28;20467;-49
2024/01/17 09:24:30;;;;;;;12.25;6.60;;;;;;;;;;5089312;28;20374;-49
2024/01/17 09:26:56;;;;;;;12.50;6.45;;;;;;;;;;5089276;28;20489;-50
2024/01/17 09:29:22;;;;;;;11.55;6.28;;;;;;;;;;5089391;28;20385;-48
2024/01/17 09:31:48;;;;;;;15.52;7.55;;;;;;;;;;5087858;28;20378;-50
2024/01/17 09:34:14;;;;;;;13.47;6.90;;;;;;;;;;5087618;28;20394;-52
2024/01/17 09:36:40;;;;;;;14.80;6.67;;;;;;;;;;5089263;28;20379;-50
2024/01/17 09:39:06;;;;;;;15.33;6.20;;;;;;;;;;5089477;28;20379;-48
2024/01/17 09:41:32;;;;;;;13.80;5.87;;;;;;;;;;5091216;28;20747;-52
2024/01/17 09:43:58;;;;;;;11.90;5.97;;;;;;;;;;5092584;28;20473;-49
2024/01/17 09:46:24;;;;;;;10.98;6.22;;;;;;;;;;5092957;28;20406;-54
2024/01/17 09:48:50;;;;;;;11.40;6.20;;;;;;;;;;5092742;28;20370;-53
2024/01/17 09:51:16;;;;;;;11.50;6.28;;;;;;;;;;5091266;28;20401;-53
2024/01/17 09:53:45;;;;;;;14.00;6.13;;;;;;;;;;5090867;28;20370;-53
2024/01/17 09:56:12;;;;;;;13.10;6.50;;;;;;;;;;5092447;28;20557;-50
2024/01/17 09:58:39;;;;;;;14.98;6.25;;;;;;;;;;5092613;28;20381;-50
2024/01/17 10:01:07;;;;;;;12.18;5.95;;;;;;;;;;5092891;28;20461;-50
2024/01/17 10:03:36;;;;;;;12.25;5.88;;;;;;;;;;5091713;28;20392;-49
2024/01/17 10:06:03;;;;;;;13.50;6.25;;;;;;;;;;5092997;28;20409;-50
2024/01/17 10:08:30;;;;;;;14.43;7.22;;;;;;;;;;5090367;28;20401;-49
2024/01/17 10:10:56;;;;;;;13.30;6.88;;;;;;;;;;5092100;28;20394;-53
2024/01/17 10:13:22;;;;;;;11.18;5.45;;;;;;;;;;5091639;28;20410;-50
2024/01/17 10:15:48;;;;;;;14.25;7.63;;;;;;;;;;5090164;28;20828;-50
2024/01/17 10:18:15;;;;;;;11.35;6.50;;;;;;;;;;5091986;28;20439;-50
2024/01/17 10:20:42;;;;;;;11.37;6.57;;;;;;;;;;5090431;28;20398;-49
2024/01/17 10:23:08;;;;;;;12.18;6.20;;;;;;;;;;5092236;28;20418;-51
2024/01/17 10:25:53;;;;;;;12.23;6.97;;;;;;;;;;5091944;28;20453;-53
2024/01/17 10:28:19;;;;;;;12.82;6.05;;;;;;;;;;5091814;28;20370;-51
2024/01/17 10:30:45;;;;;;;12.30;6.68;;;;;;;;;;5092001;28;20423;-51
2024/01/17 10:33:11;;;;;;;12.43;6.30;;;;;;;;;;5091970;28;21117;-49
2024/01/17 10:35:37;;;;;;;16.48;7.90;;;;;;;;;;5091922;28;20378;-53
2024/01/17 10:38:04;;;;;;;15.65;6.20;;;;;;;;;;5090211;28;20914;-52
2024/01/17 10:40:30;;;;;;;11.45;6.20;;;;;;;;;;5092037;28;20362;-54
2024/01/17 10:43:15;;;;;;;11.35;6.38;;;;;;;;;;5091540;28;20912;-52
2024/01/17 10:45:44;;;;;;;11.95;6.15;;;;;;;;;;5091714;28;20402;-52
2024/01/17 10:48:10;;;;;;;11.45;6.18;;;;;;;;;;5091753;28;20374;-53
2024/01/17 10:50:36;;;;;;;15.18;6.50;;;;;;;;;;5091705;28;20438;-53
2024/01/17 10:53:08;;;;;;;13.87;6.53;;;;;;;;;;5091275;28;20515;-54
2024/01/17 10:55:35;;;;;;;10.10;5.70;;;;;;;;;;5089468;28;20398;-52
2024/01/17 10:58:04;;;;;;;13.35;6.25;;;;;;;;;;5091542;28;20515;-53
2024/01/17 11:00:31;;;;;;;11.68;6.43;;;;;;;;;;5091412;28;20705;-54
2024/01/17 11:02:59;;;;;;;12.15;6.55;;;;;;;;;;5091642;28;20895;-51
2024/01/17 11:05:26;;;;;;;13.25;6.70;;;;;;;;;;5089033;28;21350;-54
2024/01/17 11:07:53;;;;;;;14.18;7.35;;;;;;;;;;5088498;28;20491;-52
2024/01/17 11:10:20;;;;;;;12.10;6.03;;;;;;;;;;5089105;28;20501;-51
2024/01/17 11:12:46;;;;;;;12.60;6.85;;;;;;;;;;5090992;28;20374;-53
2024/01/17 11:15:12;;;;;;;11.27;6.40;;;;;;;;;;5090801;28;20384;-51
2024/01/17 11:17:39;;;;;;;13.50;6.70;;;;;;;;;;5091405;28;20500;-50
2024/01/17 11:20:10;;;;;;;10.18;6.40;;;;;;;;;;5091122;28;20386;-50
2024/01/17 11:22:36;;;;;;;12.20;6.50;;;;;;;;;;5090979;28;20409;-51
2024/01/17 11:25:10;;;;;;;13.27;6.67;;;;;;;;;;5088905;28;20545;-50
2024/01/17 11:27:43;;;;;;;15.40;6.70;;;;;;;;;;5084170;28;20457;-50
2024/01/17 11:30:18;;;;;;;13.23;6.82;;;;;;;;;;5090609;28;20424;-52
2024/01/17 11:32:47;;;;;;;11.68;6.97;;;;;;;;;;5090734;28;20861;-52
2024/01/17 11:35:32;;;;;;;11.38;6.22;;;;;;;;;;5071925;28;20371;-54
2024/01/17 11:37:58;;;;;;;12.63;6.55;;;;;;;;;;5088494;28;20469;-50
2024/01/17 11:40:24;;;;;;;13.35;6.50;;;;;;;;;;5091153;28;20456;-54
2024/01/17 11:42:50;;;;;;;13.40;7.72;;;;;;;;;;5090544;28;20389;-53
2024/01/17 11:45:16;;;;;;;14.30;7.43;;;;;;;;;;5088803;28;20406;-53
2024/01/17 11:47:52;;;;;;;14.60;6.90;;;;;;;;;;5090333;28;20820;-54
2024/01/17 11:50:20;;;;;;;14.32;7.45;;;;;;;;;;5090882;28;20419;-51
2024/01/17 11:52:46;;;;;;;16.67;7.70;;;;;;;;;;5090486;28;20428;-52
2024/01/17 11:55:12;;;;;;;13.03;6.60;;;;;;;;;;5090317;28;20380;-51
2024/01/17 11:57:38;;;;;;;13.37;7.87;;;;;;;;;;5090447;28;20370;-55
2024/01/17 12:00:11;;;;;;;13.13;7.03;;;;;;;;;;5088610;28;20791;-53
2024/01/17 12:02:38;;;;;;;14.30;7.50;;;;;;;;;;5090437;28;20905;-55
2024/01/17 12:05:05;;;;;;;14.07;6.57;;;;;;;;;;5089636;28;20385;-53
2024/01/17 12:07:31;;;;;;;14.80;7.60;;;;;;;;;;5090311;28;20510;-53
2024/01/17 12:09:57;;;;;;;18.50;9.20;;;;;;;;;;5090282;28;20401;-50
2024/01/17 12:12:23;;;;;;;12.80;7.30;;;;;;;;;;5087638;28;20956;-52
2024/01/17 12:14:49;;;;;;;12.17;7.00;;;;;;;;;;5089160;28;20409;-51
2024/01/17 12:17:15;;;;;;;11.23;6.90;;;;;;;;;;5090230;28;20382;-50
2024/01/17 12:19:43;;;;;;;15.63;7.60;;;;;;;;;;5090255;28;20381;-55
2024/01/17 12:22:09;;;;;;;14.95;7.50;;;;;;;;;;5090238;28;20374;-53
2024/01/17 12:24:37;;;;;;;13.65;7.38;;;;;;;;;;5089567;28;20382;-55
2024/01/17 12:27:05;;;;;;;12.10;7.10;;;;;;;;;;5088249;28;20879;-54
2024/01/17 12:29:32;;;;;;;13.38;7.35;;;;;;;;;;5089787;28;20886;-54
2024/01/17 12:31:58;;;;;;;14.07;7.95;;;;;;;;;;5090278;28;20757;-53
2024/01/17 12:34:24;;;;;;;13.63;6.55;;;;;;;;;;5087865;28;20432;-54
2024/01/17 12:36:50;;;;;;;13.13;7.50;;;;;;;;;;5087693;28;20417;-53
2024/01/17 12:39:17;;;;;;;19.08;9.75;;;;;;;;;;5089820;28;20382;-54
2024/01/17 12:41:43;;;;;;;20.77;11.17;;;;;;;;;;5087987;28;20390;-53
2024/01/17 12:44:09;;;;;;;17.73;9.93;;;;;;;;;;5089346;28;20428;-52
2024/01/17 12:46:35;;;;;;;23.00;10.75;;;;;;;;;;5089876;28;20421;-51
2024/01/17 12:49:01;;;;;;;15.48;7.88;;;;;;;;;;5081002;28;20518;-50
2024/01/17 12:51:29;;;;;;;14.55;7.88;;;;;;;;;;5089790;28;20374;-52
2024/01/17 12:53:56;;;;;;;13.77;7.40;;;;;;;;;;5086986;28;20442;-53
2024/01/17 12:56:22;;;;;;;13.52;8.25;;;;;;;;;;5089681;28;20489;-53
2024/01/17 12:58:49;;;;;;;13.90;8.35;;;;;;;;;;5088661;28;20382;-53
2024/01/17 13:01:16;;;;;;;14.10;7.18;;;;;;;;;;5089619;28;20390;-54
2024/01/17 13:03:44;;;;;;;11.63;7.03;;;;;;;;;;5089588;28;20382;-55
2024/01/17 13:06:12;;;;;;;11.90;6.72;;;;;;;;;;5081308;28;20413;-52
2024/01/17 13:08:38;;;;;;;13.77;7.05;;;;;;;;;;5089597;28;20371;-53
2024/01/17 13:11:14;;;;;;;12.20;6.53;;;;;;;;;;5089287;28;20431;-53
2024/01/17 13:13:40;;;;;;;14.30;7.77;;;;;;;;;;5085438;28;20414;-54
2024/01/17 13:16:06;;;;;;;13.63;7.07;;;;;;;;;;5088141;28;20466;-54
2024/01/17 13:18:32;;;;;;;11.83;6.67;;;;;;;;;;5091195;28;20878;-53
2024/01/17 13:21:09;;;;;;;14.25;6.70;;;;;;;;;;5093408;28;20389;-51
2024/01/17 13:23:34;;;;;;;12.57;7.07;;;;;;;;;;5090636;28;20397;-53
2024/01/17 13:26:00;;;;;;;12.47;6.70;;;;;;;;;;5089190;28;20748;-52
2024/01/17 13:28:26;;;;;;;12.83;6.83;;;;;;;;;;5089656;28;20830;-51
2024/01/17 13:30:52;;;;;;;15.48;8.48;;;;;;;;;;5093507;28;20389;-51
2024/01/17 13:33:19;;;;;;;15.43;7.28;;;;;;;;;;5092780;28;20905;-54
2024/01/17 13:35:48;;;;;;;13.70;7.07;;;;;;;;;;5093195;28;20423;-51
2024/01/17 13:38:14;;;;;;;12.48;6.72;;;;;;;;;;5092063;28;20454;-54
2024/01/17 13:40:40;;;;;;;14.82;6.97;;;;;;;;;;5092277;28;20394;-50
2024/01/17 13:43:06;;;;;;;11.13;6.13;;;;;;;;;;5081851;28;20386;-53
2024/01/17 13:45:32;;;;;;;13.15;7.20;;;;;;;;;;5094893;28;20861;-52
2024/01/17 13:47:58;;;;;;;13.38;6.68;;;;;;;;;;5092446;28;21225;-52
2024/01/17 13:50:25;;;;;;;12.20;6.85;;;;;;;;;;5091320;28;20385;-54
2024/01/17 13:52:52;;;;;;;12.00;6.50;;;;;;;;;;5090878;28;20886;-54
2024/01/17 13:55:19;;;;;;;11.73;6.82;;;;;;;;;;5092083;28;20381;-54
2024/01/17 13:57:46;;;;;;;14.20;6.90;;;;;;;;;;5092764;28;20381;-53
2024/01/17 14:00:12;;;;;;;13.00;6.68;;;;;;;;;;5090782;28;20932;-53
2024/01/17 14:02:38;;;;;;;13.48;7.30;;;;;;;;;;5092722;28;20381;-52
2024/01/17 14:05:04;;;;;;;12.07;7.27;;;;;;;;;;5092104;28;20897;-51
2024/01/17 14:07:30;;;;;;;14.63;7.43;;;;;;;;;;5092329;28;20401;-53
2024/01/17 14:09:56;;;;;;;16.10;7.07;;;;;;;;;;5092397;28;20477;-50
2024/01/17 14:12:22;;;;;;;13.77;7.30;;;;;;;;;;5090090;28;20385;-53
2024/01/17 14:14:48;;;;;;;14.50;7.20;;;;;;;;;;5091907;28;20524;-49
2024/01/17 14:17:14;;;;;;;13.88;7.10;;;;;;;;;;5091622;28;20382;-53
2024/01/17 14:19:40;;;;;;;12.85;7.22;;;;;;;;;;5091216;28;21049;-53
2024/01/17 14:22:06;;;;;;;14.93;7.53;;;;;;;;;;5087191;28;20411;-51
2024/01/17 14:24:32;;;;;;;14.40;7.10;;;;;;;;;;5084274;28;20405;-50